Portland Hillsboro Airport
KHIO : now visible

Airfield :











YOU CAN JOIN US ON...

 
LOGIN :

Register | Disclaimer

   EN    FR    IT 

 









Legend :    VFR   Marginal VFR   IFR   Intensive IFR   Very Intensive IFR
Visi :
Ceiling :
>= 8 km
>= 3000ft
5 to 8 km
1000 to 3000 ft
1500m to 5 km
500 to 1000 ft
800 to 1500m
200 to 500 ft
< 800m
< 200 ft
Symbols :   Thunderstorms  Fog  Heavy snow  Heavy precipitations  Wind > 20 kt






- Airport Elevation : 208 ft


KHIO - Portland Hillsboro

CURRENT METAR :
  • 150753Z AUTO 30003KT 9SM OVC015 02/02 A3005 RMK AO2 SLP177 T00220017 400720017

EXPIRED METARs :
  • 150653Z AUTO 00000KT 5SM BR OVC017 02/02 A3004 RMK AO2 SLP174 T00220017
  • 150628Z AUTO 32003KT 3SM BR OVC017 02/02 A3003 RMK AO2 T00170017
  • 150616Z AUTO 31004KT 1 3/4SM BR OVC017 02/02 A3003 RMK AO2 T00220017
  • 150553Z AUTO 00000KT 8SM BKN017 03/03 A3002 RMK AO2 SLP169 T00280028 10067 20022 53011

TAF KHIO
Valid from the 15 at 06:00 until the 16 at 06:00 UTC


150535Z 1506/1606 00000KT 1/2SM FG BKN006 OVC011
TEMPO 1506/1510 1SM BR SCT006 OVC011
FM151600 VRB03KT 1 1/2SM BR SCT004 OVC011
FM151900 VRB03KT 3SM BR SCT004 BKN011
FM152200 20003KT 6SM BR SCT020 BKN035
FM160400 00000KT 2SM BR OVC020



MET'MAP, your aeronautical weather chart ! - Copyright ORBIFLY December 2007 - Disclaimer

ORBIFLY MET'MAP TEAM :

Programming & Development : Alexandra Zaïnal
Concept & original design : Baudouin d'Aumeries
Assistance for programming : Marc-Olivier Méhu
Technical & hardware support : Manuel Goepfert

Contact : metmap@orbifly.com




SOURCES & CREDITS :

   NOAA       Earth
Advisory